Latest Weather Observations for Lucas Heights

IDN60901

Issued at 12:31 pm EST Friday 28 April 2017 (issued every 10 minutes, with the page automatically refreshed every 10 minutes)

About weather observations | Map of Sydney area stations | Latest observations for Sydney area | Other Formats
Station Details ID: 066023 Name: LUCAS HEIGHTS AWS Lat: -34.05 Lon: 150.98 Height: 140.0 m
Data from the previous 72 hours. | See also: Recent months for locations in New South Wales
Date/Time
EST
Temp
°C
App
Temp
°C
Dew
Point
°C
Rel
Hum
%
Delta-T
°C
Wind Press
QNH
hPa
Press
MSL
hPa
Rain since
9am
mm
Dir  Spd
km/h
Gust
km/h
Spd
kts
Gust
kts
28/12:15pm 18.3 16.2 6.6 46 5.9 SSW 7 15 4 8 1021.3 - 0.0
28/12:00pm 18.1 16.0 6.7 47 5.7 SSE 7 17 4 9 1021.4 - 0.0
28/11:45am 18.2 15.8 6.9 47 5.7 SSE 9 19 5 10 1021.7 - 0.0
28/11:30am 17.9 15.6 7.5 50 5.3 S 9 15 5 8 1021.9 - 0.0
28/11:15am 17.2 14.9 7.5 53 4.9 WSW 9 17 5 9 1022.0 - 0.0
28/11:00am 16.9 14.6 7.5 54 4.7 WSW 9 15 5 8 1022.2 - 0.0
28/10:45am 16.7 14.8 7.4 54 4.7 SW 7 15 4 8 1022.4 - 0.0
28/10:30am 16.6 14.3 7.5 55 4.6 SW 9 15 5 8 1022.4 - 0.0
28/10:15am 15.9 13.2 7.2 56 4.3 SW 11 17 6 9 1022.4 - 0.0
28/10:00am 15.2 12.3 6.5 56 4.3 WSW 11 15 6 8 1022.5 - 0.0
28/09:45am 14.9 12.0 6.3 56 4.2 SW 11 17 6 9 1022.5 - 0.0
28/09:30am 14.4 11.4 5.9 56 4.1 SW 11 19 6 10 1022.4 - 0.0
28/09:15am 13.8 10.7 5.4 57 4.0 SW 11 17 6 9 1022.5 - 0.0
28/09:00am 12.9 9.6 4.6 57 3.8 SW 11 19 6 10 1022.4 - 0.0
28/08:45am 12.4 9.1 4.4 58 3.7 SW 11 17 6 9 1022.3 - 0.0
28/08:30am 11.8 8.4 4.2 59 3.4 SW 11 15 6 8 1022.2 - 0.0
28/08:15am 11.2 7.1 4.1 61 3.2 SW 15 20 8 11 1022.0 - 0.0
28/08:00am 10.5 5.5 3.7 63 3.0 SW 19 26 10 14 1021.9 - 0.0
28/07:45am 10.0 5.8 3.7 65 2.8 SW 15 22 8 12 1021.8 - 0.0
28/07:30am 9.3 4.7 3.6 67 2.5 SW 17 22 9 12 1021.7 - 0.0
28/07:15am 8.7 4.1 3.6 70 2.2 SW 17 24 9 13 1021.5 - 0.0
28/07:00am 8.2 3.5 3.4 72 2.1 SW 17 24 9 13 1021.3 - 0.0
28/06:45am 7.9 2.9 3.4 73 1.9 SW 19 24 10 13 1021.1 - 0.0
28/06:30am 7.6 3.3 3.3 74 1.8 SW 15 20 8 11 1021.0 - 0.0
28/06:15am 7.6 3.3 3.2 74 1.9 SW 15 17 8 9 1020.9 - 0.0
28/06:00am 7.7 3.7 3.1 72 2.0 SW 13 19 7 10 1020.8 - 0.0
28/05:45am 7.9 3.6 3.3 73 2.0 SW 15 20 8 11 1020.6 - 0.0
28/05:30am 8.1 3.4 3.4 72 2.0 SW 17 20 9 11 1020.5 - 0.0
28/05:15am 8.2 3.2 3.5 72 2.0 SW 19 20 10 11 1020.4 - 0.0
28/05:00am 8.2 3.6 3.5 72 2.0 SW 17 20 9 11 1020.4 - 0.0
28/04:45am 8.4 4.1 3.5 71 2.1 SW 15 20 8 11 1020.3 - 0.0
28/04:30am 8.5 3.9 3.6 71 2.1 SW 17 20 9 11 1020.2 - 0.0
28/04:15am 8.8 3.8 3.7 70 2.2 SW 19 22 10 12 1019.9 - 0.0
28/04:00am 8.8 3.7 3.9 71 2.1 SW 20 24 11 13 1019.9 - 0.0
28/03:45am 8.8 3.7 4.0 72 2.1 SW 20 24 11 13 1019.8 - 0.0
28/03:30am 9.0 3.9 4.2 72 2.1 SW 20 24 11 13 1019.8 - 0.0
28/03:15am 9.1 4.0 4.3 72 2.1 SW 20 24 11 13 1019.8 - 0.0
28/03:00am 9.2 4.1 4.2 71 2.2 SW 20 26 11 14 1019.8 - 0.0
28/02:45am 9.5 4.4 4.1 69 2.4 SW 20 24 11 13 1019.8 - 0.0
28/02:30am 10.0 4.9 4.1 67 2.6 SW 20 24 11 13 1019.7 - 0.0
28/02:15am 10.4 5.4 3.6 63 3.0 SSW 19 24 10 13 1019.7 - 0.0
28/02:00am 11.5 6.8 3.0 56 3.7 SSW 17 24 9 13 1019.8 - 0.0
28/01:45am 11.8 7.1 3.1 55 3.8 SSW 17 24 9 13 1019.8 - 0.0
28/01:30am 12.0 7.0 3.5 56 3.8 S 19 30 10 16 1019.7 - 0.0
28/01:15am 12.1 6.6 4.2 58 3.6 S 22 33 12 18 1019.7 - 0.0
28/01:00am 12.2 7.3 4.9 61 3.4 S 20 39 11 21 1019.8 - 0.0
28/12:45am 12.4 7.5 5.2 61 3.4 S 20 30 11 16 1019.7 - 0.0
28/12:30am 12.5 7.6 5.3 61 3.4 S 20 32 11 17 1019.6 - 0.0
28/12:15am 12.4 7.5 5.2 61 3.4 S 20 32 11 17 1019.5 - 0.0
28/12:00am 12.6 7.4 5.7 63 3.3 S 22 32 12 17 1019.4 - 0.0
 
Date/Time
EST
Temp
°C
App
Temp
°C
Dew
Point
°C
Rel
Hum
%
Delta-T
°C
Wind Press
QNH
hPa
Press
MSL
hPa
Rain since
9am
mm
Dir  Spd
km/h
Gust
km/h
Spd
kts
Gust
kts
27/11:45pm 12.5 7.8 6.0 64 3.1 S 20 30 11 16 1019.3 - 0.0
27/11:30pm 12.5 8.4 6.0 64 3.1 SSW 17 26 9 14 1019.2 - 0.0
27/11:15pm 13.1 8.6 6.1 62 3.3 SSW 19 26 10 14 1019.0 - 0.0
27/11:00pm 13.3 8.2 6.1 61 3.4 S 22 30 12 16 1018.8 - 0.0
27/10:45pm 13.3 7.9 6.2 62 3.4 S 24 32 13 17 1018.7 - 0.0
27/10:30pm 13.4 8.7 6.2 61 3.5 S 20 30 11 16 1018.7 - 0.0
27/10:15pm 13.6 9.0 6.4 62 3.5 S 20 30 11 16 1018.6 - 0.0
27/10:00pm 13.3 9.2 6.4 63 3.3 S 17 30 9 16 1018.6 - 0.0
27/09:45pm 13.6 9.9 6.4 62 3.5 S 15 24 8 13 1018.5 - 0.0
27/09:30pm 13.8 9.8 6.5 61 3.5 S 17 26 9 14 1018.4 - 0.0
27/09:15pm 13.8 9.8 6.5 61 3.5 S 17 26 9 14 1018.4 - 0.0
27/09:00pm 14.1 10.0 6.4 60 3.7 SSW 17 22 9 12 1018.3 - 0.0
27/08:45pm 14.4 10.0 6.4 58 3.9 SSW 19 24 10 13 1018.3 - 0.0
27/08:30pm 14.7 10.6 6.4 57 4.0 SSW 17 24 9 13 1018.3 - 0.0
27/08:15pm 15.0 10.6 6.5 57 4.2 SSW 19 28 10 15 1018.3 - 0.0
27/08:00pm 15.1 10.7 6.6 57 4.2 S 19 26 10 14 1018.3 - 0.0
27/07:45pm 15.2 10.2 6.5 56 4.3 S 22 32 12 17 1018.1 - 0.0
27/07:30pm 15.2 10.6 6.4 55 4.3 S 20 32 11 17 1018.0 - 0.0
27/07:15pm 15.2 10.8 6.4 55 4.3 S 19 28 10 15 1017.9 - 0.0
27/07:00pm 15.2 10.6 6.3 55 4.3 S 20 32 11 17 1017.7 - 0.0
27/06:45pm 15.1 10.7 6.4 56 4.2 S 19 30 10 16 1017.5 - 0.0
27/06:30pm 14.9 11.2 6.5 57 4.1 S 15 24 8 13 1017.2 - 0.0
27/06:15pm 14.8 11.2 6.6 58 4.0 S 15 20 8 11 1016.9 - 0.0
27/06:00pm 14.9 11.3 6.7 58 4.0 SSW 15 20 8 11 1016.7 - 0.0
27/05:45pm 15.0 11.8 6.8 58 4.0 S 13 20 7 11 1016.5 - 0.0
27/05:30pm 15.2 12.4 6.9 57 4.1 S 11 19 6 10 1016.3 - 0.0
27/05:15pm 15.4 11.9 7.0 57 4.2 S 15 28 8 15 1016.2 - 0.0
27/05:00pm 15.6 12.0 6.9 56 4.3 S 15 24 8 13 1016.1 - 0.0
27/04:45pm 15.8 11.8 6.8 55 4.4 S 17 28 9 15 1015.9 - 0.0
27/04:30pm 16.1 12.1 6.8 54 4.6 S 17 24 9 13 1015.7 - 0.0
27/04:15pm 16.5 12.6 6.9 53 4.8 S 17 32 9 17 1015.6 - 0.0
27/04:00pm 16.7 12.8 7.0 52 4.8 S 17 24 9 13 1015.4 - 0.0
27/03:45pm 17.3 12.7 6.6 49 5.3 S 20 33 11 18 1015.2 - 0.0
27/03:30pm 17.9 13.7 7.4 50 5.3 S 19 30 10 16 1015.1 - 0.0
27/03:15pm 17.4 12.2 7.1 50 5.2 S 24 32 13 17 1015.0 - 0.0
27/03:00pm 17.0 12.5 7.1 52 5.0 S 20 32 11 17 1014.9 - 0.0
27/02:45pm 16.5 12.0 6.9 53 4.8 S 20 30 11 16 1014.9 - 0.0
27/02:30pm 16.8 12.5 7.0 52 4.9 S 19 30 10 16 1014.7 - 0.0
27/02:15pm 16.8 11.5 7.0 52 4.9 SSE 24 39 13 21 1014.7 - 0.0
27/02:00pm 16.9 13.0 7.3 53 4.8 SSE 17 28 9 15 1014.6 - 0.0
27/01:45pm 16.5 12.1 7.2 54 4.7 SSE 20 33 11 18 1014.5 - 0.0
27/01:30pm 16.7 12.3 6.7 51 5.0 SSE 19 30 10 16 1014.4 - 0.0
27/01:15pm 17.5 14.0 7.0 50 5.3 S 15 26 8 14 1014.4 - 0.0
27/01:00pm 17.0 13.9 7.1 52 5.0 S 13 24 7 13 1014.4 - 0.0
27/12:45pm 16.3 12.6 6.4 52 4.9 S 15 26 8 14 1014.5 - 0.0
27/12:30pm 16.9 12.9 6.5 50 5.1 S 17 24 9 13 1014.5 - 0.0
27/12:15pm 17.4 14.1 6.3 48 5.5 S 13 24 7 13 1014.7 - 0.0
27/12:00pm 17.0 13.3 6.3 49 5.3 S 15 26 8 14 1014.8 - 0.0
27/11:45am 16.6 12.5 6.4 51 5.0 S 17 26 9 14 1014.8 - 0.0
27/11:30am 16.6 12.9 6.5 51 5.0 S 15 24 8 13 1015.0 - 0.0
27/11:15am 16.4 12.3 6.4 51 4.9 S 17 32 9 17 1015.1 - 0.0
27/11:00am 15.8 11.3 6.1 52 4.7 S 19 32 10 17 1015.1 - 0.0
27/10:45am 15.4 12.2 5.1 50 4.9 SSW 11 20 6 11 1015.2 - 0.0
27/10:30am 14.6 10.9 4.6 51 4.7 SW 13 19 7 10 1015.3 - 0.0
27/10:15am 13.9 9.7 3.8 50 4.6 SW 15 22 8 12 1015.4 - 0.0
27/10:00am 13.4 9.1 3.4 50 4.5 SW 15 24 8 13 1015.5 - 0.0
27/09:45am 12.9 8.6 3.1 51 4.4 WSW 15 22 8 12 1015.5 - 0.0
27/09:30am 12.6 7.9 2.9 51 4.3 SW 17 22 9 12 1015.5 - 0.0
27/09:15am 12.2 7.8 2.9 53 4.1 SW 15 24 8 13 1015.6 - 0.0
27/09:00am 11.4 6.2 2.6 54 3.8 SW 19 30 10 16 1015.6 - 0.9
27/08:45am 10.7 5.5 2.3 56 3.6 SW 19 26 10 14 1015.6 - 0.9
27/08:30am 10.8 4.6 2.3 55 3.7 SW 24 32 13 17 1015.4 - 0.9
27/08:15am 10.2 4.9 2.9 60 3.2 SW 20 30 11 16 1015.2 - 0.9
27/08:00am 9.6 4.2 2.5 61 3.0 WSW 20 30 11 16 1014.9 - 0.9
27/07:45am 9.5 4.1 2.5 61 3.0 WSW 20 30 11 16 1014.6 - 0.9
27/07:30am 9.5 4.1 2.7 62 2.9 WSW 20 30 11 16 1014.4 - 0.9
27/07:15am 9.4 4.1 2.9 64 2.8 WSW 20 24 11 13 1014.1 - 0.9
27/07:00am 9.3 3.6 3.0 65 2.7 SW 22 28 12 15 1013.8 - 0.9
27/06:45am 9.4 3.4 3.1 65 2.7 SW 24 30 13 16 1013.5 - 0.9
27/06:30am 9.3 3.3 3.3 66 2.6 SW 24 30 13 16 1013.4 - 0.9
27/06:15am 9.4 3.8 3.4 66 2.6 SW 22 28 12 15 1013.2 - 0.9
27/06:00am 9.5 4.3 3.5 66 2.6 SW 20 28 11 15 1012.9 - 0.9
27/05:45am 9.4 3.8 3.6 67 2.5 SW 22 26 12 14 1012.7 - 0.9
27/05:30am 9.5 4.3 3.6 66 2.6 SW 20 26 11 14 1012.5 - 0.9
27/05:15am 9.6 4.4 3.7 66 2.6 SW 20 26 11 14 1012.3 - 0.9
27/05:00am 9.6 4.0 3.7 66 2.6 SW 22 24 12 13 1012.2 - 0.9
27/04:45am 9.7 4.5 3.7 66 2.6 SW 20 24 11 13 1012.1 - 0.9
27/04:30am 9.7 4.1 3.7 66 2.6 SW 22 26 12 14 1011.9 - 0.9
27/04:15am 9.7 5.1 3.6 66 2.7 SW 17 22 9 12 1011.8 - 0.9
27/04:00am 10.0 5.0 3.6 64 2.8 SW 19 26 10 14 1011.8 - 0.9
27/03:45am 10.2 5.2 3.8 64 2.8 SW 19 24 10 13 1011.8 - 0.9
27/03:30am 10.4 5.3 4.0 64 2.9 SW 20 24 11 13 1011.8 - 0.9
27/03:15am 10.7 5.6 4.3 64 2.9 SW 20 24 11 13 1011.6 - 0.9
27/03:00am 10.9 5.9 4.6 65 2.9 SW 20 26 11 14 1011.6 - 0.9
27/02:45am 11.1 6.1 4.6 64 3.0 SW 20 24 11 13 1011.5 - 0.9
27/02:30am 11.5 6.5 4.7 63 3.1 SW 20 26 11 14 1011.6 - 0.9
27/02:15am 11.9 6.6 4.9 62 3.2 SW 22 30 12 16 1011.6 - 0.9
27/02:00am 12.2 7.0 5.5 63 3.1 SW 22 30 12 16 1011.6 - 0.9
27/01:45am 12.6 7.9 6.2 65 3.1 SW 20 26 11 14 1011.5 - 0.9
27/01:30am 12.8 8.3 6.9 67 2.9 SW 20 26 11 14 1011.5 - 0.9
27/01:15am 12.8 8.6 7.4 69 2.6 SW 19 24 10 13 1011.5 - 0.9
27/01:00am 12.8 9.3 7.4 69 2.6 SW 15 19 8 10 1011.4 - 0.9
27/12:45am 13.0 9.5 7.4 69 2.7 SW 15 17 8 9 1011.4 - 0.9
27/12:30am 13.0 9.5 7.4 69 2.7 SW 15 17 8 9 1011.2 - 0.9
27/12:15am 13.0 9.5 7.1 67 2.9 SW 15 20 8 11 1011.1 - 0.9
27/12:00am 13.2 9.7 7.3 67 2.9 SW 15 20 8 11 1010.8 - 0.9
 
Date/Time
EST
Temp
°C
App
Temp
°C
Dew
Point
°C
Rel
Hum
%
Delta-T
°C
Wind Press
QNH
hPa
Press
MSL
hPa
Rain since
9am
mm
Dir  Spd
km/h
Gust
km/h
Spd
kts
Gust
kts
26/11:45pm 13.3 9.4 7.3 67 2.9 SW 17 22 9 12 1010.6 - 0.9
26/11:30pm 13.3 9.0 7.2 66 3.0 SW 19 24 10 13 1010.4 - 0.9
26/11:15pm 13.3 9.0 7.2 66 3.0 SW 19 22 10 12 1010.3 - 0.9
26/11:00pm 13.4 9.5 7.2 66 3.0 SW 17 22 9 12 1010.3 - 0.9
26/10:45pm 13.5 9.2 7.1 65 3.1 SW 19 26 10 14 1010.2 - 0.9
26/10:30pm 13.5 8.6 7.1 65 3.1 SW 22 26 12 14 1010.1 - 0.9
26/10:15pm 13.5 9.0 7.0 65 3.2 SW 20 28 11 15 1009.9 - 0.9
26/10:00pm 13.5 9.0 6.9 64 3.2 SW 20 30 11 16 1009.9 - 0.9
26/09:45pm 13.5 9.5 6.8 64 3.3 SW 17 24 9 13 1009.8 - 0.9
26/09:30pm 13.6 9.2 6.7 63 3.3 SSW 19 30 10 16 1009.7 - 0.9
26/09:15pm 13.6 9.0 6.7 63 3.3 SW 20 32 11 17 1009.4 - 0.9
26/09:00pm 13.5 8.6 6.7 63 3.3 SW 22 32 12 17 1009.0 - 0.9
26/08:45pm 13.4 8.8 6.7 64 3.2 SW 20 33 11 18 1008.8 - 0.9
26/08:30pm 13.3 8.7 6.6 64 3.2 SW 20 32 11 17 1008.5 - 0.9
26/08:15pm 13.1 8.5 6.6 64 3.1 SW 20 30 11 16 1008.3 - 0.9
26/08:00pm 13.0 8.4 6.4 64 3.2 SW 20 28 11 15 1008.2 - 0.9
26/07:45pm 13.0 9.0 6.5 64 3.1 SW 17 24 9 13 1008.1 - 0.9
26/07:30pm 12.9 8.3 6.5 65 3.1 SW 20 30 11 16 1007.9 - 0.9
26/07:15pm 12.6 8.2 6.4 66 3.0 SW 19 26 10 14 1007.7 - 0.9
26/07:00pm 12.8 7.9 6.7 66 2.9 WSW 22 30 12 16 1007.3 - 0.9
26/06:45pm 12.7 7.9 7.4 70 2.6 WSW 22 30 12 16 1006.9 - 0.9
26/06:30pm 12.6 7.9 7.6 71 2.5 W 22 28 12 15 1006.5 - 0.9
26/06:15pm 12.5 8.3 8.1 74 2.2 W 20 26 11 14 1005.9 - 0.7
26/06:00pm 12.4 9.2 8.4 76 2.0 W 15 20 8 11 1005.5 - 0.7
26/05:45pm 12.3 10.6 8.3 76 2.0 W 7 13 4 7 1005.1 - 0.7
26/05:30pm 12.5 10.0 8.4 76 2.0 W 11 17 6 9 1004.5 - 0.7
26/05:15pm 12.7 9.6 8.8 77 2.0 WNW 15 20 8 11 1004.3 - 0.7
26/05:00pm 12.8 10.1 8.8 76 2.0 W 13 22 7 12 1004.4 - 0.7
26/04:45pm 12.9 9.4 8.6 75 2.2 W 17 24 9 13 1004.6 - 0.7
26/04:30pm 12.9 8.8 8.8 76 2.1 W 20 26 11 14 1004.8 - 0.7
26/04:15pm 12.8 8.8 9.2 79 1.8 W 20 28 11 15 1004.9 - 0.7
26/04:00pm 12.6 8.3 9.4 81 1.6 W 22 26 12 14 1005.0 - 0.7
26/03:45pm 12.4 8.6 9.1 80 1.7 W 19 24 10 13 1005.0 - 0.7
26/03:30pm 12.3 8.2 8.6 78 1.9 WSW 20 28 11 15 1005.0 - 0.7
26/03:15pm 12.8 5.6 7.7 71 2.5 WSW 35 50 19 27 1004.9 - 0.7
26/03:00pm 14.7 8.0 7.3 61 3.7 SW 32 46 17 25 1004.2 - 0.0
26/02:45pm 15.3 5.8 6.5 55 4.3 SW 46 67 25 36 1004.1 - 0.0
26/02:30pm 19.0 12.2 7.9 48 5.7 WSW 33 76 18 41 1003.2 - 0.0
26/02:15pm 20.1 17.4 8.8 48 6.0 WNW 13 20 7 11 1002.5 - 0.0
26/02:00pm 20.5 17.5 9.2 48 6.0 W 15 24 8 13 1002.6 - 0.0
26/01:45pm 20.8 17.6 8.3 44 6.6 WSW 15 26 8 14 1002.5 - 0.0
26/01:30pm 21.3 16.2 7.5 41 7.2 W 24 39 13 21 1002.5 - 0.0
26/01:15pm 21.8 16.3 7.5 39 7.5 W 26 39 14 21 1002.4 - 0.0
26/01:00pm 21.5 17.4 8.0 42 7.1 W 19 32 10 17 1002.5 - 0.0
26/12:45pm 21.1 17.2 7.3 41 7.1 W 17 30 9 16 1002.7 - 0.0
26/12:30pm 21.5 16.6 6.7 38 7.6 WNW 22 32 12 17 1002.8 - 0.0
26/12:15pm 21.8 16.5 6.8 38 7.7 WNW 24 39 13 21 1003.0 - 0.0
26/12:00pm 21.9 16.7 7.4 39 7.5 WNW 24 35 13 19 1003.4 - 0.0
26/11:45am 21.9 16.8 7.5 39 7.5 W 24 37 13 20 1003.7 - 0.0
26/11:30am 21.6 15.3 7.2 39 7.5 W 30 39 16 21 1004.0 - 0.0
26/11:15am 21.3 15.9 8.1 42 6.9 WNW 26 39 14 21 1004.3 - 0.0
26/11:00am 21.2 15.9 8.5 44 6.7 WNW 26 35 14 19 1004.6 - 0.0
26/10:45am 20.7 16.8 9.3 48 6.1 WNW 20 32 11 17 1004.8 - 0.0
26/10:30am 20.9 17.2 10.3 50 5.8 WNW 20 32 11 17 1005.1 - 0.0
26/10:15am 20.6 17.2 10.5 52 5.5 WNW 19 28 10 15 1005.3 - 0.0
26/10:00am 20.4 17.4 10.8 54 5.3 WNW 17 30 9 16 1005.5 - 0.0
26/09:45am 20.2 16.8 11.2 56 5.0 NW 20 37 11 20 1005.8 - 0.0
26/09:30am 20.0 17.3 11.7 59 4.6 NW 17 28 9 15 1006.0 - 0.0
26/09:15am 19.7 17.5 12.0 61 4.3 NW 15 30 8 16 1006.2 - 0.0
26/09:00am 19.3 17.2 12.3 64 3.9 NW 15 24 8 13 1006.2 - 0.9
26/08:45am 18.8 17.1 12.5 67 3.5 NW 13 24 7 13 1006.2 - 0.9
26/08:30am 17.9 16.3 12.8 72 2.9 NW 13 19 7 10 1006.1 - 0.9
26/08:15am 16.9 15.9 12.4 75 2.5 NW 9 19 5 10 1006.2 - 0.9
26/08:00am 16.6 16.1 12.2 75 2.4 NW 6 11 3 6 1006.4 - 0.9
26/07:45am 16.3 14.9 12.2 77 2.3 NW 11 20 6 11 1006.4 - 0.9
26/07:30am 15.5 13.8 12.4 82 1.7 WNW 13 22 7 12 1006.4 - 0.9
26/07:15am 14.4 13.8 11.7 84 1.5 NW 6 17 3 9 1006.4 - 0.9
26/07:00am 14.1 12.8 11.2 83 1.5 NW 9 20 5 11 1006.4 - 0.9
26/06:45am 14.5 12.0 11.2 80 1.8 NW 15 19 8 10 1006.4 - 0.9
26/06:30am 14.9 11.6 11.6 80 1.8 WNW 20 24 11 13 1006.4 - 0.9
26/06:15am 14.9 11.7 11.3 79 1.9 WNW 19 24 10 13 1006.4 - 0.9
26/06:00am 16.0 12.8 11.8 76 2.3 W 20 24 11 13 1006.4 - 0.9
26/05:45am 16.3 13.2 12.3 77 2.2 W 20 26 11 14 1006.4 - 0.9
26/05:30am 15.9 12.8 12.3 79 2.0 W 20 24 11 13 1006.3 - 0.9
26/05:15am 16.0 12.7 12.8 81 1.8 W 22 28 12 15 1006.4 - 0.9
26/05:00am 16.0 13.8 13.2 83 1.6 WSW 17 24 9 13 1006.2 - 0.9
26/04:45am 15.7 13.0 12.9 83 1.6 WSW 19 24 10 13 1006.1 - 0.9
26/04:30am 16.4 15.0 13.4 82 1.7 W 13 17 7 9 1006.3 - 0.9
26/04:15am 16.7 15.1 13.9 83 1.6 W 15 19 8 10 1006.2 - 0.9
26/04:00am 16.8 15.7 14.2 85 1.5 W 13 17 7 9 1006.2 - 0.9
26/03:45am 16.3 14.7 14.0 86 1.3 W 15 17 8 9 1006.4 - 0.9
26/03:30am 16.4 15.2 14.0 86 1.4 W 13 15 7 8 1006.6 - 0.9
26/03:15am 16.3 15.4 13.8 85 1.4 W 11 15 6 8 1006.7 - 0.9
26/03:00am 16.7 15.6 14.2 85 1.4 W 13 17 7 9 1006.9 - 0.9
26/02:45am 16.8 15.7 14.3 85 1.4 W 13 15 7 8 1006.9 - 0.9
26/02:30am 16.9 15.8 14.3 85 1.5 W 13 17 7 9 1007.2 - 0.9
26/02:15am 17.0 15.6 14.4 85 1.5 WNW 15 20 8 11 1007.3 - 0.9
26/02:00am 17.1 16.1 14.7 86 1.4 W 13 17 7 9 1007.4 - 0.9
26/01:45am 17.2 16.2 14.6 85 1.5 WNW 13 17 7 9 1007.4 - 0.9
26/01:30am 17.3 16.0 14.7 85 1.5 NW 15 17 8 9 1007.5 - 0.9
26/01:15am 17.5 15.8 14.8 84 1.6 NW 17 20 9 11 1007.5 - 0.9
26/01:00am 17.6 16.0 14.9 84 1.6 NW 17 20 9 11 1007.5 - 0.9
26/12:45am 17.8 16.2 15.1 84 1.6 WNW 17 19 9 10 1007.5 - 0.9
26/12:30am 17.7 16.1 15.0 84 1.6 NW 17 19 9 10 1007.5 - 0.9
26/12:15am 17.5 16.2 14.7 83 1.6 NW 15 17 8 9 1007.6 - 0.9
26/12:00am 17.7 16.8 14.9 84 1.6 NW 13 15 7 8 1007.6 - 0.9
 
Date/Time
EST
Temp
°C
App
Temp
°C
Dew
Point
°C
Rel
Hum
%
Delta-T
°C
Wind Press
QNH
hPa
Press
MSL
hPa
Rain since
9am
mm
Dir  Spd
km/h
Gust
km/h
Spd
kts
Gust
kts
25/11:45pm 18.0 17.2 15.1 83 1.7 WNW 13 17 7 9 1007.8 - 0.9
25/11:30pm 18.1 17.4 15.3 84 1.6 NW 13 17 7 9 1007.9 - 0.9
25/11:15pm 18.1 17.3 15.2 83 1.7 NW 13 15 7 8 1007.9 - 0.9
25/11:00pm 18.3 17.6 15.4 83 1.7 NW 13 15 7 8 1007.9 - 0.9
25/10:45pm 18.3 17.6 15.4 83 1.7 NW 13 15 7 8 1008.0 - 0.9
25/10:30pm 18.4 18.1 15.4 83 1.8 NW 11 15 6 8 1008.2 - 0.9
25/10:15pm 18.5 17.8 15.5 83 1.8 NW 13 15 7 8 1008.4 - 0.9
25/10:00pm 18.6 17.6 15.5 82 1.8 NW 15 17 8 9 1008.5 - 0.9
25/09:45pm 18.7 18.1 15.6 82 1.8 NW 13 17 7 9 1008.5 - 0.9
25/09:30pm 18.8 17.8 15.6 82 1.9 NW 15 20 8 11 1008.5 - 0.9
25/09:15pm 18.7 18.0 15.5 81 1.9 NW 13 19 7 10 1008.5 - 0.9
25/09:00pm 18.8 17.8 15.6 82 1.9 NW 15 20 8 11 1008.5 - 0.9
25/08:45pm 18.8 17.8 15.6 82 1.9 NW 15 20 8 11 1008.4 - 0.9
25/08:30pm 18.9 18.7 15.6 81 2.0 NW 11 17 6 9 1008.5 - 0.9
25/08:15pm 18.8 18.2 15.7 82 1.8 NNW 13 17 7 9 1008.3 - 0.9
25/08:00pm 18.8 18.5 15.5 81 2.0 NW 11 17 6 9 1008.2 - 0.9
25/07:45pm 19.1 18.9 15.8 81 2.0 NW 11 15 6 8 1008.2 - 0.9
25/07:30pm 19.1 18.6 15.9 82 1.9 NNW 13 20 7 11 1008.1 - 0.9
25/07:15pm 19.0 18.5 16.0 83 1.8 NNW 13 20 7 11 1008.2 - 0.9
25/07:00pm 18.8 18.7 15.9 83 1.7 NNW 11 17 6 9 1008.2 - 0.9
25/06:45pm 18.8 19.1 15.9 83 1.7 NNW 9 15 5 8 1008.1 - 0.9
25/06:30pm 18.9 18.5 16.1 84 1.7 NNW 13 20 7 11 1008.0 - 0.9
25/06:15pm 18.8 18.0 16.2 85 1.6 NNW 15 20 8 11 1008.1 - 0.9
25/06:00pm 18.8 18.8 16.2 85 1.6 NNW 11 19 6 10 1008.1 - 0.9
25/05:45pm 18.7 18.3 16.1 85 1.6 NNW 13 24 7 13 1008.0 - 0.9
25/05:30pm 18.9 18.5 16.2 84 1.6 NNW 13 19 7 10 1008.0 - 0.9
25/05:15pm 19.0 18.6 16.3 84 1.6 NNW 13 22 7 12 1008.1 - 0.9
25/05:00pm 19.1 18.4 16.4 84 1.6 NNW 15 22 8 12 1008.2 - 0.9
25/04:45pm 19.1 18.8 16.4 84 1.6 NNW 13 24 7 13 1008.0 - 0.9
25/04:30pm 19.4 18.9 16.8 85 1.6 N 15 22 8 12 1008.0 - 0.9
25/04:15pm 19.8 19.8 17.3 85 1.5 N 13 20 7 11 1008.1 - 0.9
25/04:00pm 20.2 21.2 17.7 85 1.5 NNW 9 17 5 9 1008.1 - 0.7
25/03:45pm 20.0 20.6 17.6 86 1.5 NNW 11 15 6 8 1007.9 - 0.7
25/03:30pm 19.8 19.8 17.3 85 1.5 NW 13 19 7 10 1008.0 - 0.7
25/03:15pm 19.9 19.4 17.0 83 1.8 NW 15 19 8 10 1007.9 - 0.7
25/03:00pm 20.2 20.0 16.6 80 2.2 WNW 13 17 7 9 1008.1 - 0.7
25/02:45pm 20.8 20.1 16.5 76 2.6 W 15 19 8 10 1008.3 - 0.5
25/02:30pm 21.6 20.4 16.1 71 3.3 W 17 24 9 13 1008.4 - 0.2
25/02:15pm 23.5 21.9 14.9 58 5.1 W 17 28 9 15 1008.4 - 0.0
25/02:00pm 24.2 21.8 14.4 54 5.8 NW 20 32 11 17 1008.2 - 0.0
25/01:45pm 24.6 21.6 14.7 54 5.9 NW 24 35 13 19 1008.1 - 0.0
25/01:30pm 24.3 22.2 14.8 55 5.7 NNW 19 30 10 16 1008.2 - 0.0
25/01:15pm 24.8 22.9 15.1 54 5.9 NNW 19 30 10 16 1008.4 - 0.0
25/01:00pm 23.8 22.6 15.0 57 5.3 NNW 15 24 8 13 1008.8 - 0.0
25/12:45pm 23.4 21.9 15.3 60 4.9 NNW 17 26 9 14 1009.1 - 0.0

Latest Capital City Observations: Canberra | Sydney | Melbourne | Brisbane | Adelaide | Perth | Hobart | Darwin

Other Formats:

Comma delimited format used in spreadsheet applications
http://www.bom.gov.au/fwo/IDN60901/IDN60901.95757.axf

JavaScript Object Notation format (JSON) in row-major order
http://www.bom.gov.au/fwo/IDN60901/IDN60901.95757.json